SBOSBO EWR / KEWR
Speedbird OnlineSpeedbird Online EWR / KEWR

Newark Liberty International Airport
00:49 20.6°C

Location Newark, United States
Latitude: 40.692501068115234
Longitude: -74.168701171875
Altitude 5 Meter / 18 Feet
Distance 5,599 KM / 3,479 Miles
from London.
Time Zone UTC -4 hours (America/New_York)
Codes IATA: EWR
ICAO: KEWR
Currency £1 equals USD 1.21
METAR KEWR 160351Z 00000KT 10SM FEW055 BKN250 22/14 A3001 RMK AO2 SLP161 T02170144
TAF KEWR 160222Z 1602/1706 15009KT P6SM FEW060 BKN250 FM160400 07006KT P6SM FEW060 BKN250 FM161400 06010G18KT P6SM SCT050 SCT250 FM162000 10012KT P6SM SCT050 SCT100 FM170000 07007KT P6SM SCT050 SCT100
Weather As Of 16 Aug 2022 00:49
Description Broken clouds
Wind 0 km/h from North (0°)
Cloud Cover 75%
Precipitation Rain: none, Snow: none
Sunrise 06:08
Sunset 19:54
Lounges American Airlines Admirals Club, Terminal A
British Airways Lounge (Open), Terminal B
Rotations During the last 90 days there were
194 flights from LHR
1 flights from SNN
197 flights to LHR


© 2017-2022 Speedbird Online